Valle Escondido, Puerto Rico
Current Conditions -  °F | °C
As of 7:53 AM on Sunday 21 Dec 2014 (Local Time) from TJNR Reporting Station
Clear Clear  
Wind Chill: 79°   Ceiling: Unl
Heat Index: 81°   Visibility: 10mi
Dew Point: 67°   Wind: 9mph
Humidity: 66%   Direction: 70°ENE
Pressure: 30.09"   Gusts: NA
Location:  18.1494°N, 65.8294°W
Report Text: TJNR 211153Z AUTO 07008KT 10SM CLR 26/19 A3009 RMK AO2 SLP188 70023 T02610194 10261 20250 53019 $
Loading
Personal Weather Stations






























Interactive Weather Map New forecast layout! Learn more

10-Day Weather Forecast

Advertisements
Track Severe Weather on mobile